Time;durP1;ratioP1;P1;durP2;ratioP2;P2;SDS_P1;SDS_P2;PMS_P1;PMS_P2;Temp;Humidity;BMP_temperature;BMP_pressure;BME280_temperature;BME280_humidity;BME280_pressure;Samples;Min_cycle;Max_cycle;Signal;HPM_P1;HPM_P2
2021/10/09 00:01:55;;;;;;;26.95;16.88;;;;;;;;;;5025670;28;20075;-45
2021/10/09 00:04:22;;;;;;;22.88;16.20;;;;;;;;;;5031153;28;20064;-48
2021/10/09 00:06:50;;;;;;;27.65;18.10;;;;;;;;;;5028694;28;20535;-47
2021/10/09 00:09:17;;;;;;;27.33;17.42;;;;;;;;;;5012252;28;20922;-45
2021/10/09 00:11:44;;;;;;;26.08;16.90;;;;;;;;;;5012308;28;20069;-43
2021/10/09 00:14:11;;;;;;;29.88;17.40;;;;;;;;;;5015024;28;20570;-45
2021/10/09 00:16:39;;;;;;;25.50;16.80;;;;;;;;;;5017863;28;20071;-44
2021/10/09 00:19:06;;;;;;;26.60;16.10;;;;;;;;;;5015033;28;20407;-47
2021/10/09 00:21:32;;;;;;;27.83;16.88;;;;;;;;;;5031983;28;20392;-45
2021/10/09 00:24:00;;;;;;;25.98;16.23;;;;;;;;;;5028128;28;20072;-43
2021/10/09 00:26:27;;;;;;;23.52;15.63;;;;;;;;;;5032239;28;20041;-45
2021/10/09 00:28:54;;;;;;;22.77;15.75;;;;;;;;;;5030549;28;20132;-45
2021/10/09 00:31:21;;;;;;;31.67;16.38;;;;;;;;;;5027406;28;20080;-47
2021/10/09 00:33:48;;;;;;;27.60;16.42;;;;;;;;;;5017441;28;20046;-44
2021/10/09 00:36:15;;;;;;;24.83;16.95;;;;;;;;;;5031859;28;20041;-45
2021/10/09 00:38:42;;;;;;;22.85;15.00;;;;;;;;;;5017346;28;20068;-47
2021/10/09 00:41:09;;;;;;;28.40;16.42;;;;;;;;;;5012060;28;20061;-47
2021/10/09 00:43:36;;;;;;;26.55;16.00;;;;;;;;;;5013069;28;20526;-45
2021/10/09 00:46:03;;;;;;;26.88;16.77;;;;;;;;;;5030591;28;20136;-46
2021/10/09 00:48:32;;;;;;;23.20;15.50;;;;;;;;;;5013041;28;20100;-46
2021/10/09 00:50:59;;;;;;;26.63;16.77;;;;;;;;;;5032535;28;20128;-45
2021/10/09 00:53:28;;;;;;;27.92;17.15;;;;;;;;;;5040109;28;20053;-47
2021/10/09 00:55:55;;;;;;;26.27;16.73;;;;;;;;;;5022709;28;20148;-47
2021/10/09 00:58:23;;;;;;;27.17;17.63;;;;;;;;;;5033877;28;20120;-46
2021/10/09 01:00:50;;;;;;;24.38;16.67;;;;;;;;;;5010320;28;20046;-47
2021/10/09 01:03:17;;;;;;;28.67;18.27;;;;;;;;;;5032355;28;20458;-46
2021/10/09 01:05:44;;;;;;;30.90;18.02;;;;;;;;;;5047056;28;20065;-45
2021/10/09 01:08:11;;;;;;;27.70;17.95;;;;;;;;;;5024009;28;20117;-49
2021/10/09 01:10:38;;;;;;;28.02;17.27;;;;;;;;;;5030768;28;20116;-43
2021/10/09 01:13:05;;;;;;;28.05;18.00;;;;;;;;;;5029747;28;20042;-45
2021/10/09 01:15:33;;;;;;;27.38;17.98;;;;;;;;;;5030250;28;20133;-45
2021/10/09 01:18:08;;;;;;;27.38;17.60;;;;;;;;;;5029229;28;20050;-47
2021/10/09 01:21:04;;;;;;;30.17;17.85;;;;;;;;;;5010454;28;20587;-48
2021/10/09 01:23:39;;;;;;;25.48;16.95;;;;;;;;;;5017522;28;20095;-47
2021/10/09 01:26:07;;;;;;;27.40;18.40;;;;;;;;;;5028404;28;20380;-42
2021/10/09 01:28:36;;;;;;;29.75;19.17;;;;;;;;;;5041805;28;20045;-43
2021/10/09 01:31:04;;;;;;;28.25;17.80;;;;;;;;;;5033181;28;20033;-43
2021/10/09 01:33:31;;;;;;;29.35;19.42;;;;;;;;;;5033018;28;20076;-45
2021/10/09 01:35:58;;;;;;;31.08;18.40;;;;;;;;;;5028798;28;20030;-45
2021/10/09 01:38:35;;;;;;;34.22;20.00;;;;;;;;;;5067186;22;20038;-44
2021/10/09 01:41:06;;;;;;;33.35;19.80;;;;;;;;;;5032712;28;20056;-45
2021/10/09 01:43:34;;;;;;;31.65;20.50;;;;;;;;;;5032254;28;20037;-45
2021/10/09 01:46:01;;;;;;;29.85;19.17;;;;;;;;;;5033888;28;20096;-45
2021/10/09 01:48:30;;;;;;;31.00;19.55;;;;;;;;;;5029251;28;20038;-46
2021/10/09 01:50:58;;;;;;;29.70;18.92;;;;;;;;;;5013122;28;20034;-45
2021/10/09 01:53:25;;;;;;;30.45;19.40;;;;;;;;;;5020762;28;20140;-46
2021/10/09 01:55:52;;;;;;;28.65;19.52;;;;;;;;;;5029343;28;20541;-48
2021/10/09 01:58:19;;;;;;;29.35;19.23;;;;;;;;;;5028677;28;20117;-45
2021/10/09 02:00:46;;;;;;;32.97;20.35;;;;;;;;;;5017058;28;20042;-48
2021/10/09 02:03:17;;;;;;;34.13;21.20;;;;;;;;;;5031906;28;20092;-47
2021/10/09 02:05:44;;;;;;;30.52;20.65;;;;;;;;;;5032559;28;20054;-45
2021/10/09 02:08:12;;;;;;;35.83;20.13;;;;;;;;;;5028816;28;20065;-43
2021/10/09 02:11:01;;;;;;;28.73;19.40;;;;;;;;;;5029718;28;20117;-45
2021/10/09 02:26:34;;;;;;;31.98;18.80;;;;;;;;;;5016278;28;20049;-48
2021/10/09 02:29:02;;;;;;;30.90;19.88;;;;;;;;;;5012081;28;20088;-47
2021/10/09 02:31:29;;;;;;;31.60;19.92;;;;;;;;;;5031554;28;20506;-44
2021/10/09 02:33:56;;;;;;;35.28;20.30;;;;;;;;;;5047840;28;20076;-47
2021/10/09 02:36:23;;;;;;;32.05;19.73;;;;;;;;;;5032583;28;20167;-46
2021/10/09 02:38:50;;;;;;;32.55;19.92;;;;;;;;;;5030793;28;20038;-44
2021/10/09 02:41:18;;;;;;;30.42;19.40;;;;;;;;;;5031996;28;20046;-43
2021/10/09 02:43:46;;;;;;;35.80;20.08;;;;;;;;;;5031509;28;20045;-43
2021/10/09 02:46:13;;;;;;;33.88;20.45;;;;;;;;;;5031653;28;20042;-47
2021/10/09 02:48:41;;;;;;;31.20;20.33;;;;;;;;;;5012363;28;20042;-46
2021/10/09 02:51:07;;;;;;;28.08;19.10;;;;;;;;;;5022074;28;20091;-46
2021/10/09 02:53:34;;;;;;;35.63;19.80;;;;;;;;;;5030906;28;20095;-45
2021/10/09 02:56:01;;;;;;;31.88;20.33;;;;;;;;;;5031830;28;20479;-45
2021/10/09 02:58:32;;;;;;;29.05;20.02;;;;;;;;;;5012180;28;20161;-43
2021/10/09 03:01:00;;;;;;;33.72;20.83;;;;;;;;;;5016869;28;20049;-46
2021/10/09 03:03:27;;;;;;;33.20;20.45;;;;;;;;;;5030843;28;20093;-44
2021/10/09 03:05:54;;;;;;;34.78;20.20;;;;;;;;;;5031467;28;20069;-45
2021/10/09 03:08:21;;;;;;;32.60;21.08;;;;;;;;;;5027970;28;20137;-45
2021/10/09 03:10:49;;;;;;;29.98;20.10;;;;;;;;;;5028858;28;20038;-44
2021/10/09 03:13:16;;;;;;;33.08;20.92;;;;;;;;;;5030802;28;20084;-45
2021/10/09 03:15:42;;;;;;;33.58;21.42;;;;;;;;;;5032560;28;20041;-45
2021/10/09 03:18:09;;;;;;;33.95;21.02;;;;;;;;;;5014678;28;20391;-46
2021/10/09 03:20:36;;;;;;;34.70;21.23;;;;;;;;;;5017469;28;20052;-42
2021/10/09 03:23:07;;;;;;;33.97;20.65;;;;;;;;;;5030205;28;20525;-43
2021/10/09 03:25:33;;;;;;;29.65;20.23;;;;;;;;;;5027483;28;20116;-46
2021/10/09 03:28:00;;;;;;;32.45;20.35;;;;;;;;;;5030478;28;20132;-45
2021/10/09 03:30:27;;;;;;;34.88;20.05;;;;;;;;;;5018797;28;20449;-45
2021/10/09 03:32:54;;;;;;;32.13;20.80;;;;;;;;;;5023155;28;20373;-44
2021/10/09 03:35:21;;;;;;;35.78;19.63;;;;;;;;;;5030039;28;20050;-45
2021/10/09 03:37:49;;;;;;;31.17;20.65;;;;;;;;;;5031181;28;20147;-46
2021/10/09 03:40:19;;;;;;;29.65;20.08;;;;;;;;;;5016416;28;20396;-45
2021/10/09 03:42:51;;;;;;;32.60;20.33;;;;;;;;;;5019102;28;20498;-47
2021/10/09 03:45:35;;;;;;;33.28;20.73;;;;;;;;;;5030063;28;20116;-45
2021/10/09 03:53:01;;;;;;;33.10;21.55;;;;;;;;;;5032498;28;20065;-45
2021/10/09 03:55:28;;;;;;;35.22;21.67;;;;;;;;;;5030050;28;20037;-44
2021/10/09 03:57:55;;;;;;;36.83;21.80;;;;;;;;;;5020631;28;20076;-46
2021/10/09 04:00:22;;;;;;;38.22;21.48;;;;;;;;;;5010524;28;20463;-45
2021/10/09 04:02:56;;;;;;;32.45;20.33;;;;;;;;;;5014268;28;20049;-45
2021/10/09 04:05:24;;;;;;;38.65;20.90;;;;;;;;;;5031053;28;20054;-45
2021/10/09 04:07:52;;;;;;;29.85;20.38;;;;;;;;;;5030636;28;20045;-46
2021/10/09 04:10:21;;;;;;;35.22;21.17;;;;;;;;;;5012267;28;20049;-45
2021/10/09 04:12:50;;;;;;;36.63;20.67;;;;;;;;;;5010798;28;20121;-45
2021/10/09 04:15:17;;;;;;;34.13;21.00;;;;;;;;;;5029257;28;20518;-47
2021/10/09 04:17:44;;;;;;;33.35;20.13;;;;;;;;;;5021789;28;20462;-46
2021/10/09 04:20:13;;;;;;;35.47;21.25;;;;;;;;;;5031307;28;20052;-47
2021/10/09 04:22:40;;;;;;;32.45;20.90;;;;;;;;;;5030311;28;20136;-44
2021/10/09 04:25:07;;;;;;;34.65;20.75;;;;;;;;;;5025433;28;20092;-46
2021/10/09 04:27:35;;;;;;;33.63;20.98;;;;;;;;;;4994254;28;20050;-45
2021/10/09 04:30:05;;;;;;;36.22;21.50;;;;;;;;;;5010024;28;20030;-45
2021/10/09 04:32:32;;;;;;;30.65;20.65;;;;;;;;;;5022515;28;20049;-46
2021/10/09 04:34:59;;;;;;;34.17;21.80;;;;;;;;;;5028856;28;20046;-47
2021/10/09 04:37:26;;;;;;;31.63;20.90;;;;;;;;;;5029834;28;20164;-46
2021/10/09 04:39:53;;;;;;;35.30;22.15;;;;;;;;;;5011083;28;20073;-48
2021/10/09 04:42:21;;;;;;;35.50;21.90;;;;;;;;;;5011536;28;20049;-44
2021/10/09 04:44:48;;;;;;;36.45;22.05;;;;;;;;;;5029201;28;20133;-45
2021/10/09 04:47:15;;;;;;;34.25;21.98;;;;;;;;;;5026089;28;20125;-47
2021/10/09 04:49:42;;;;;;;33.75;21.70;;;;;;;;;;5026426;28;20046;-46
2021/10/09 04:52:09;;;;;;;33.35;21.48;;;;;;;;;;5026503;28;20065;-46
2021/10/09 04:54:37;;;;;;;35.03;22.35;;;;;;;;;;5028791;28;20065;-45
2021/10/09 04:57:04;;;;;;;40.78;24.55;;;;;;;;;;5029760;28;20080;-47
2021/10/09 04:59:33;;;;;;;35.55;23.67;;;;;;;;;;5025665;28;20038;-46
2021/10/09 05:01:59;;;;;;;38.17;22.50;;;;;;;;;;5011188;28;20038;-46
2021/10/09 05:04:29;;;;;;;36.97;23.00;;;;;;;;;;5009311;28;20038;-45
2021/10/09 05:06:57;;;;;;;31.85;22.25;;;;;;;;;;5045788;28;20116;-45
2021/10/09 05:09:24;;;;;;;36.78;24.08;;;;;;;;;;5027169;28;20151;-47
2021/10/09 05:11:51;;;;;;;37.97;23.50;;;;;;;;;;5013148;28;20095;-46
2021/10/09 05:14:18;;;;;;;37.88;23.60;;;;;;;;;;5030099;28;20056;-43
2021/10/09 05:16:45;;;;;;;36.67;23.40;;;;;;;;;;5028882;28;20410;-45
2021/10/09 05:19:12;;;;;;;37.33;23.92;;;;;;;;;;5029598;28;20056;-45
2021/10/09 05:21:39;;;;;;;41.15;24.63;;;;;;;;;;5029743;28;20045;-45
2021/10/09 05:24:06;;;;;;;36.33;23.20;;;;;;;;;;5029037;28;20051;-46
2021/10/09 05:26:36;;;;;;;33.28;23.45;;;;;;;;;;5025103;28;20092;-48
2021/10/09 05:29:04;;;;;;;38.83;24.17;;;;;;;;;;5026732;28;20042;-46
2021/10/09 05:31:35;;;;;;;40.75;24.63;;;;;;;;;;5009751;28;20049;-47
2021/10/09 05:34:02;;;;;;;41.55;24.98;;;;;;;;;;5039545;28;20115;-45
2021/10/09 05:36:32;;;;;;;38.63;24.42;;;;;;;;;;5029717;28;20037;-44
2021/10/09 05:38:59;;;;;;;42.75;25.67;;;;;;;;;;5025840;28;20060;-45
2021/10/09 05:41:26;;;;;;;41.13;25.80;;;;;;;;;;5030933;28;20459;-45
2021/10/09 05:44:06;;;;;;;41.63;25.77;;;;;;;;;;5028929;28;20045;-45
2021/10/09 05:46:34;;;;;;;38.15;24.48;;;;;;;;;;5029530;28;20398;-46
2021/10/09 05:49:01;;;;;;;46.38;26.75;;;;;;;;;;5026060;28;20038;-44
2021/10/09 05:51:33;;;;;;;39.08;25.27;;;;;;;;;;5026315;28;20042;-44
2021/10/09 06:02:14;;;;;;;42.42;24.75;;;;;;;;;;5016485;28;20037;-47
2021/10/09 06:59:46;;;;;;;42.13;25.40;;;;;;;;;;5023725;28;20046;-44
2021/10/09 07:02:13;;;;;;;47.17;27.08;;;;;;;;;;5013537;28;20100;-47
2021/10/09 07:04:41;;;;;;;40.13;24.98;;;;;;;;;;5031882;28;20473;-44
2021/10/09 07:07:09;;;;;;;46.42;25.70;;;;;;;;;;5031839;28;20083;-44
2021/10/09 07:09:48;;;;;;;44.28;26.40;;;;;;;;;;5031228;28;20065;-46
2021/10/09 07:12:18;;;;;;;49.28;27.08;;;;;;;;;;5031795;28;20049;-46
2021/10/09 07:14:46;;;;;;;43.85;25.73;;;;;;;;;;5033608;28;20051;-46
2021/10/09 07:17:14;;;;;;;44.83;25.85;;;;;;;;;;5041815;28;20079;-45
2021/10/09 07:19:41;;;;;;;44.13;26.65;;;;;;;;;;5029914;28;20041;-45
2021/10/09 07:22:07;;;;;;;47.95;28.48;;;;;;;;;;5030968;28;20152;-45
2021/10/09 07:24:54;;;;;;;46.22;26.98;;;;;;;;;;5027828;28;20499;-45
2021/10/09 07:27:21;;;;;;;49.35;27.73;;;;;;;;;;5030873;28;20037;-44
2021/10/09 07:29:48;;;;;;;44.05;26.98;;;;;;;;;;5028172;28;20141;-45
2021/10/09 07:32:16;;;;;;;43.83;26.25;;;;;;;;;;5032856;28;20125;-45
2021/10/09 07:34:42;;;;;;;44.45;26.48;;;;;;;;;;5030990;28;20447;-48
2021/10/09 07:37:09;;;;;;;45.35;28.02;;;;;;;;;;5031596;28;20045;-46
2021/10/09 07:39:36;;;;;;;46.85;27.63;;;;;;;;;;5012717;28;20704;-44
2021/10/09 07:42:04;;;;;;;42.83;26.33;;;;;;;;;;5028403;28;20144;-47
2021/10/09 07:44:30;;;;;;;40.65;26.58;;;;;;;;;;5032313;28;20049;-46
2021/10/09 07:46:57;;;;;;;41.78;26.33;;;;;;;;;;5030514;28;20050;-47
2021/10/09 07:49:24;;;;;;;44.53;27.45;;;;;;;;;;5013019;28;20132;-44
2021/10/09 07:51:51;;;;;;;48.15;28.10;;;;;;;;;;5025466;28;20491;-45
2021/10/09 07:54:17;;;;;;;46.33;28.95;;;;;;;;;;5025142;28;20145;-46
2021/10/09 07:56:44;;;;;;;47.53;28.40;;;;;;;;;;5031332;28;20133;-44
2021/10/09 07:59:11;;;;;;;46.55;28.25;;;;;;;;;;5030577;28;20089;-45
2021/10/09 08:01:38;;;;;;;47.13;27.90;;;;;;;;;;5028424;28;20056;-44
2021/10/09 08:04:05;;;;;;;44.72;28.05;;;;;;;;;;5034501;28;20041;-44
2021/10/09 08:06:31;;;;;;;51.92;30.27;;;;;;;;;;5028648;28;20042;-45
2021/10/09 08:08:58;;;;;;;47.35;26.95;;;;;;;;;;5040121;28;20052;-43
2021/10/09 08:11:25;;;;;;;45.40;27.40;;;;;;;;;;5030293;28;20411;-45
2021/10/09 08:13:52;;;;;;;46.53;27.15;;;;;;;;;;5040990;28;20067;-44
2021/10/09 08:16:18;;;;;;;52.25;28.02;;;;;;;;;;5034325;28;20530;-44
2021/10/09 08:18:45;;;;;;;45.53;27.58;;;;;;;;;;5030589;28;20133;-42
2021/10/09 08:21:12;;;;;;;46.88;28.80;;;;;;;;;;5025807;28;20048;-42
2021/10/09 08:23:52;;;;;;;47.83;27.50;;;;;;;;;;5027274;28;20045;-44
2021/10/09 08:40:18;;;;;;;44.70;26.42;;;;;;;;;;5027653;28;20511;-42
2021/10/09 08:42:45;;;;;;;43.70;27.70;;;;;;;;;;5028048;28;20041;-49
2021/10/09 08:45:13;;;;;;;50.05;28.35;;;;;;;;;;5029110;28;20380;-44
2021/10/09 08:47:43;;;;;;;42.78;26.88;;;;;;;;;;5020261;28;20046;-46
2021/10/09 08:50:10;;;;;;;38.50;24.83;;;;;;;;;;5043506;28;20136;-45
2021/10/09 08:52:37;;;;;;;38.80;24.33;;;;;;;;;;5029068;28;20045;-44
2021/10/09 08:55:23;;;;;;;36.80;22.75;;;;;;;;;;5027805;28;20033;-45
2021/10/09 08:57:50;;;;;;;38.92;22.45;;;;;;;;;;5018007;28;20049;-45
2021/10/09 09:00:50;;;;;;;38.10;24.10;;;;;;;;;;5027524;28;20056;-52
2021/10/09 09:03:22;;;;;;;35.05;21.80;;;;;;;;;;5046377;28;20414;-52
2021/10/09 09:06:27;;;;;;;37.47;23.20;;;;;;;;;;5040308;28;20095;-49
2021/10/09 09:25:16;;;;;;;43.23;23.07;;;;;;;;;;5032917;28;20411;-47
2021/10/09 09:33:51;;;;;;;34.88;21.88;;;;;;;;;;5024209;28;20091;-47
2021/10/09 09:41:41;;;;;;;34.20;21.00;;;;;;;;;;5023717;28;20137;-47
2021/10/09 09:44:13;;;;;;;33.88;19.20;;;;;;;;;;5019071;28;20480;-48
2021/10/09 09:46:40;;;;;;;36.83;22.40;;;;;;;;;;5023322;28;20410;-48
2021/10/09 09:49:09;;;;;;;34.97;19.92;;;;;;;;;;5024716;28;20054;-47
2021/10/09 09:51:38;;;;;;;34.95;20.52;;;;;;;;;;5036874;28;20466;-46
2021/10/09 09:54:05;;;;;;;29.80;19.17;;;;;;;;;;5034664;28;20038;-49
2021/10/09 09:56:32;;;;;;;35.05;21.05;;;;;;;;;;5033967;28;20038;-48
2021/10/09 09:59:00;;;;;;;31.20;20.33;;;;;;;;;;5032080;28;20483;-47
2021/10/09 10:01:32;;;;;;;30.38;20.45;;;;;;;;;;5020952;28;20617;-49
2021/10/09 10:03:59;;;;;;;31.30;20.27;;;;;;;;;;5045442;28;20491;-47
2021/10/09 10:06:27;;;;;;;32.15;20.20;;;;;;;;;;5026949;28;20045;-50
2021/10/09 10:08:55;;;;;;;36.05;20.83;;;;;;;;;;5031726;28;20049;-47
2021/10/09 10:11:22;;;;;;;30.90;20.60;;;;;;;;;;5032580;28;20045;-46
2021/10/09 10:13:50;;;;;;;32.92;20.98;;;;;;;;;;5032946;28;20491;-47
2021/10/09 10:16:16;;;;;;;30.98;20.75;;;;;;;;;;5030900;28;20034;-47
2021/10/09 10:18:48;;;;;;;33.30;20.08;;;;;;;;;;5032106;28;20038;-46
2021/10/09 10:21:16;;;;;;;31.67;21.35;;;;;;;;;;5032378;28;20053;-47
2021/10/09 10:23:44;;;;;;;33.65;22.85;;;;;;;;;;5033280;28;20132;-49
2021/10/09 10:26:20;;;;;;;36.90;24.02;;;;;;;;;;5028551;28;20041;-49
2021/10/09 10:28:48;;;;;;;36.17;23.00;;;;;;;;;;5031549;28;20049;-49
2021/10/09 10:31:14;;;;;;;29.75;20.30;;;;;;;;;;5016392;28;20418;-45
2021/10/09 10:33:43;;;;;;;31.15;18.83;;;;;;;;;;5032556;28;20038;-51
2021/10/09 10:36:12;;;;;;;31.52;19.63;;;;;;;;;;5032513;28;20053;-46
2021/10/09 10:38:45;;;;;;;31.00;19.10;;;;;;;;;;5025050;28;20060;-47
2021/10/09 10:41:17;;;;;;;27.45;18.02;;;;;;;;;;5029282;28;20037;-50
2021/10/09 10:46:34;;;;;;;24.20;16.20;;;;;;;;;;5029458;28;20068;-48
2021/10/09 10:54:22;;;;;;;21.65;14.95;;;;;;;;;;5030682;28;20113;-47
2021/10/09 10:56:58;;;;;;;22.52;15.23;;;;;;;;;;5040788;28;20391;-47
2021/10/09 10:59:32;;;;;;;23.55;15.40;;;;;;;;;;5035706;28;20042;-48
2021/10/09 11:02:10;;;;;;;21.63;15.10;;;;;;;;;;5032153;28;20064;-48
2021/10/09 11:04:42;;;;;;;19.75;14.40;;;;;;;;;;5045014;28;20047;-49
2021/10/09 11:07:08;;;;;;;22.20;14.82;;;;;;;;;;5041330;28;20053;-53
2021/10/09 11:09:38;;;;;;;22.98;14.88;;;;;;;;;;5028810;28;20136;-48
2021/10/09 11:12:18;;;;;;;21.10;14.90;;;;;;;;;;5038752;28;20099;-49
2021/10/09 11:14:45;;;;;;;24.17;15.63;;;;;;;;;;5044979;28;20070;-52
2021/10/09 11:17:12;;;;;;;20.90;14.57;;;;;;;;;;5031424;28;20041;-50
2021/10/09 11:19:48;;;;;;;20.77;15.48;;;;;;;;;;5036539;28;20087;-53
2021/10/09 11:22:17;;;;;;;24.38;14.15;;;;;;;;;;5031547;28;20088;-53
2021/10/09 11:24:45;;;;;;;22.05;14.90;;;;;;;;;;5038465;28;20083;-51
2021/10/09 11:27:13;;;;;;;20.98;13.73;;;;;;;;;;5034207;28;20121;-50
2021/10/09 11:29:40;;;;;;;20.48;15.13;;;;;;;;;;5025344;28;20129;-50
2021/10/09 11:32:10;;;;;;;19.02;13.07;;;;;;;;;;5042521;28;20060;-52
2021/10/09 11:35:06;;;;;;;19.58;14.60;;;;;;;;;;5043904;28;20048;-54
2021/10/09 11:37:33;;;;;;;21.40;14.07;;;;;;;;;;5025345;28;20041;-48
2021/10/09 11:40:04;;;;;;;18.05;13.05;;;;;;;;;;5037401;28;20575;-51
2021/10/09 11:42:37;;;;;;;18.73;12.25;;;;;;;;;;5030275;28;20554;-49
2021/10/09 11:45:08;;;;;;;23.50;14.52;;;;;;;;;;5030039;28;20038;-45
2021/10/09 11:56:07;;;;;;;18.98;12.77;;;;;;;;;;5023353;28;20038;-47
2021/10/09 11:58:49;;;;;;;19.88;13.75;;;;;;;;;;5024791;28;20479;-46
2021/10/09 12:01:32;;;;;;;18.95;12.10;;;;;;;;;;5013949;28;20460;-44
2021/10/09 12:04:15;;;;;;;18.20;12.68;;;;;;;;;;5026042;28;20038;-47
2021/10/09 12:06:49;;;;;;;17.80;12.52;;;;;;;;;;5028991;28;20040;-49
2021/10/09 12:09:32;;;;;;;18.13;12.80;;;;;;;;;;5028856;28;20044;-47
2021/10/09 12:12:17;;;;;;;25.33;13.77;;;;;;;;;;5033503;28;20499;-46
2021/10/09 12:14:44;;;;;;;26.23;14.27;;;;;;;;;;5029765;28;20432;-47
2021/10/09 12:17:11;;;;;;;21.17;12.38;;;;;;;;;;5025783;28;20033;-48
2021/10/09 12:19:38;;;;;;;17.23;11.75;;;;;;;;;;5029220;28;20042;-44
2021/10/09 12:22:06;;;;;;;20.42;12.85;;;;;;;;;;5030309;28;20045;-49
2021/10/09 12:24:45;;;;;;;16.15;11.90;;;;;;;;;;5029554;28;20051;-48
2021/10/09 12:27:17;;;;;;;17.55;12.40;;;;;;;;;;5024201;28;20057;-49
2021/10/09 12:29:57;;;;;;;19.42;11.52;;;;;;;;;;5027205;28;20047;-46
2021/10/09 12:32:24;;;;;;;17.33;11.65;;;;;;;;;;5024576;28;20133;-47
2021/10/09 12:35:11;;;;;;;17.50;11.68;;;;;;;;;;5030163;28;20041;-45
2021/10/09 12:37:38;;;;;;;19.15;12.18;;;;;;;;;;5029617;28;20402;-44
2021/10/09 12:40:07;;;;;;;20.10;12.07;;;;;;;;;;5020096;28;20120;-47
2021/10/09 12:42:34;;;;;;;16.85;11.10;;;;;;;;;;5028709;28;20095;-46
2021/10/09 12:45:01;;;;;;;18.23;11.55;;;;;;;;;;5026864;28;20128;-47
2021/10/09 12:47:48;;;;;;;14.82;10.40;;;;;;;;;;5024173;28;20638;-46
2021/10/09 12:50:15;;;;;;;18.27;10.38;;;;;;;;;;5029466;28;20053;-46
2021/10/09 12:52:42;;;;;;;14.25;8.35;;;;;;;;;;5026117;28;20056;-47
2021/10/09 12:55:09;;;;;;;13.50;8.13;;;;;;;;;;5027015;28;20033;-48
2021/10/09 12:57:46;;;;;;;14.35;9.02;;;;;;;;;;5024909;28;20475;-46
2021/10/09 13:00:13;;;;;;;11.75;8.70;;;;;;;;;;5026180;28;20053;-49
2021/10/09 13:02:40;;;;;;;13.45;8.63;;;;;;;;;;5031004;28;20045;-44
2021/10/09 13:05:07;;;;;;;16.27;8.32;;;;;;;;;;5027017;28;20495;-47
2021/10/09 13:07:34;;;;;;;15.77;8.70;;;;;;;;;;5026835;28;20056;-48
2021/10/09 13:10:00;;;;;;;11.35;7.97;;;;;;;;;;5021103;28;20117;-47
2021/10/09 13:12:27;;;;;;;11.68;7.93;;;;;;;;;;5028774;28;20048;-46
2021/10/09 13:14:54;;;;;;;14.68;8.18;;;;;;;;;;5027802;28;20484;-46
2021/10/09 13:17:21;;;;;;;13.90;7.93;;;;;;;;;;5024842;28;20376;-48
2021/10/09 13:19:48;;;;;;;10.18;7.43;;;;;;;;;;5028838;28;20049;-48
2021/10/09 13:22:14;;;;;;;15.75;8.45;;;;;;;;;;5033944;28;20038;-49
2021/10/09 13:24:41;;;;;;;15.38;8.13;;;;;;;;;;5028746;28;20065;-48
2021/10/09 13:27:08;;;;;;;15.90;8.20;;;;;;;;;;5032926;28;20466;-47
2021/10/09 13:29:35;;;;;;;13.05;8.50;;;;;;;;;;5028900;28;20042;-45
2021/10/09 13:32:02;;;;;;;13.18;7.72;;;;;;;;;;5031828;28;20037;-46
2021/10/09 13:34:29;;;;;;;12.77;8.50;;;;;;;;;;5034825;28;20384;-46
2021/10/09 13:36:55;;;;;;;14.88;7.55;;;;;;;;;;5032876;28;20128;-47
2021/10/09 13:39:22;;;;;;;11.90;7.07;;;;;;;;;;5024531;28;20068;-46
2021/10/09 13:41:49;;;;;;;15.60;8.02;;;;;;;;;;5036308;28;20117;-45
2021/10/09 13:44:16;;;;;;;13.52;7.90;;;;;;;;;;5032794;28;20041;-45
2021/10/09 13:46:45;;;;;;;12.90;7.28;;;;;;;;;;5030709;28;20045;-46
2021/10/09 13:49:12;;;;;;;13.52;7.28;;;;;;;;;;5023403;28;20049;-44
2021/10/09 13:51:39;;;;;;;12.73;7.43;;;;;;;;;;5047162;22;20088;-48
2021/10/09 13:54:06;;;;;;;13.73;8.35;;;;;;;;;;5049378;28;20425;-42
2021/10/09 13:56:33;;;;;;;15.00;8.73;;;;;;;;;;5049949;28;20072;-43
2021/10/09 13:58:59;;;;;;;11.73;7.90;;;;;;;;;;5042142;28;20508;-46
2021/10/09 14:01:39;;;;;;;12.88;7.75;;;;;;;;;;5047633;28;20041;-44
2021/10/09 14:04:06;;;;;;;11.10;7.53;;;;;;;;;;5024877;28;20111;-48
2021/10/09 14:06:33;;;;;;;12.82;7.78;;;;;;;;;;5029403;28;20060;-45
2021/10/09 14:09:00;;;;;;;16.17;8.20;;;;;;;;;;5020073;28;20140;-47
2021/10/09 14:11:27;;;;;;;14.55;8.88;;;;;;;;;;5025880;28;20132;-43
2021/10/09 14:13:54;;;;;;;13.82;8.40;;;;;;;;;;5026180;28;20050;-44
2021/10/09 14:16:23;;;;;;;13.15;7.78;;;;;;;;;;5025826;28;20578;-45
2021/10/09 14:18:50;;;;;;;15.43;8.32;;;;;;;;;;5033491;28;20371;-44
2021/10/09 14:21:17;;;;;;;12.73;7.28;;;;;;;;;;5032310;28;20498;-43
2021/10/09 14:23:44;;;;;;;14.50;7.97;;;;;;;;;;5028361;28;20045;-47
2021/10/09 14:26:14;;;;;;;10.60;7.07;;;;;;;;;;5021289;28;20037;-48
2021/10/09 14:28:40;;;;;;;13.43;8.05;;;;;;;;;;5031406;28;20107;-46
2021/10/09 14:31:07;;;;;;;12.73;8.07;;;;;;;;;;5026743;28;20128;-43
2021/10/09 14:33:34;;;;;;;11.82;7.35;;;;;;;;;;5030977;28;20219;-43
2021/10/09 14:36:01;;;;;;;16.48;8.18;;;;;;;;;;5032363;28;20114;-46
2021/10/09 14:38:28;;;;;;;14.18;7.47;;;;;;;;;;5030698;28;20141;-47
2021/10/09 14:40:55;;;;;;;16.67;7.63;;;;;;;;;;5029770;28;20045;-48
2021/10/09 14:43:23;;;;;;;13.73;8.32;;;;;;;;;;5028983;28;20065;-45
2021/10/09 14:45:54;;;;;;;16.17;8.75;;;;;;;;;;5032197;28;20132;-47
2021/10/09 14:48:25;;;;;;;12.90;7.72;;;;;;;;;;5029934;28;20073;-46
2021/10/09 14:51:10;;;;;;;15.02;7.90;;;;;;;;;;5032076;28;20463;-48
2021/10/09 15:18:26;;;;;;;12.45;8.50;;;;;;;;;;5032702;28;20045;-45
2021/10/09 15:20:53;;;;;;;14.65;8.52;;;;;;;;;;5032107;28;20089;-47
2021/10/09 15:23:20;;;;;;;14.98;8.38;;;;;;;;;;5027864;28;20507;-47
2021/10/09 15:25:47;;;;;;;12.90;7.95;;;;;;;;;;5024052;28;20093;-47
2021/10/09 15:28:15;;;;;;;11.82;7.47;;;;;;;;;;5031008;28;20423;-48
2021/10/09 15:30:47;;;;;;;15.50;7.80;;;;;;;;;;5025070;28;20065;-46
2021/10/09 15:33:14;;;;;;;16.27;8.15;;;;;;;;;;5029149;28;20083;-45
2021/10/09 15:35:40;;;;;;;12.52;7.95;;;;;;;;;;5030873;28;20116;-46
2021/10/09 15:38:07;;;;;;;13.50;8.10;;;;;;;;;;5022706;28;20037;-47
2021/10/09 15:40:52;;;;;;;13.40;6.57;;;;;;;;;;5019905;28;20128;-50
2021/10/09 15:43:19;;;;;;;12.80;7.88;;;;;;;;;;5028850;28;20054;-49
2021/10/09 15:45:46;;;;;;;10.98;7.20;;;;;;;;;;5031972;28;20045;-47
2021/10/09 15:48:13;;;;;;;13.65;7.03;;;;;;;;;;5027255;28;20041;-46
2021/10/09 15:50:39;;;;;;;13.68;7.68;;;;;;;;;;5028881;28;20041;-49
2021/10/09 15:53:10;;;;;;;12.38;6.90;;;;;;;;;;5026208;28;20037;-46
2021/10/09 15:55:37;;;;;;;11.45;6.70;;;;;;;;;;5015245;28;20165;-50
2021/10/09 15:58:03;;;;;;;11.18;7.40;;;;;;;;;;5025260;28;20129;-46
2021/10/09 16:00:31;;;;;;;13.68;7.65;;;;;;;;;;5026031;28;20045;-45
2021/10/09 16:02:57;;;;;;;10.82;7.55;;;;;;;;;;5024835;28;20621;-47
2021/10/09 16:05:25;;;;;;;12.40;7.53;;;;;;;;;;5030570;28;20087;-46
2021/10/09 16:07:51;;;;;;;12.27;7.35;;;;;;;;;;5029000;28;20129;-46
2021/10/09 16:10:18;;;;;;;13.60;7.40;;;;;;;;;;5025331;28;20141;-50
2021/10/09 16:12:45;;;;;;;10.68;6.88;;;;;;;;;;5027190;28;20041;-46
2021/10/09 16:15:12;;;;;;;11.57;6.95;;;;;;;;;;5027038;28;20132;-47
2021/10/09 16:17:39;;;;;;;10.77;7.25;;;;;;;;;;5024615;28;20116;-49
2021/10/09 16:20:06;;;;;;;12.52;7.53;;;;;;;;;;5019527;28;20050;-47
2021/10/09 16:22:34;;;;;;;15.55;7.95;;;;;;;;;;5021934;28;20038;-46
2021/10/09 16:25:01;;;;;;;12.80;7.32;;;;;;;;;;5023531;28;20068;-47
2021/10/09 16:27:28;;;;;;;11.15;7.80;;;;;;;;;;5026526;28;20073;-47
2021/10/09 16:29:55;;;;;;;11.52;6.88;;;;;;;;;;5022362;28;20041;-45
2021/10/09 16:32:22;;;;;;;15.88;8.38;;;;;;;;;;5023463;28;20042;-47
2021/10/09 16:34:48;;;;;;;12.43;7.45;;;;;;;;;;5021568;28;20037;-47
2021/10/09 16:37:15;;;;;;;15.68;8.18;;;;;;;;;;5018613;28;20041;-47
2021/10/09 16:39:42;;;;;;;13.38;8.10;;;;;;;;;;5023018;28;20410;-50
2021/10/09 16:42:09;;;;;;;13.07;8.05;;;;;;;;;;5022270;28;20042;-48
2021/10/09 16:44:38;;;;;;;10.90;7.75;;;;;;;;;;5021108;28;20095;-47
2021/10/09 16:47:05;;;;;;;12.90;8.15;;;;;;;;;;5024059;28;20044;-49
2021/10/09 16:49:31;;;;;;;13.27;7.95;;;;;;;;;;5021830;28;20132;-46
2021/10/09 16:51:58;;;;;;;14.88;8.00;;;;;;;;;;5018315;28;20438;-47
2021/10/09 16:54:25;;;;;;;11.88;8.13;;;;;;;;;;5020794;28;20038;-47
2021/10/09 16:56:52;;;;;;;15.10;8.60;;;;;;;;;;5019709;28;20050;-46
2021/10/09 16:59:34;;;;;;;13.20;7.82;;;;;;;;;;5022776;28;20136;-46
2021/10/09 17:02:00;;;;;;;14.70;8.80;;;;;;;;;;5030641;28;20065;-45
2021/10/09 17:04:28;;;;;;;13.38;8.75;;;;;;;;;;5029496;28;20060;-44
2021/10/09 17:06:54;;;;;;;13.57;8.52;;;;;;;;;;5029461;28;20402;-44
2021/10/09 17:09:21;;;;;;;14.18;9.00;;;;;;;;;;5022034;28;20050;-44
2021/10/09 17:11:48;;;;;;;17.80;8.95;;;;;;;;;;5027090;28;20056;-43
2021/10/09 17:14:15;;;;;;;14.85;8.98;;;;;;;;;;5015435;28;20407;-43
2021/10/09 17:16:42;;;;;;;15.05;9.68;;;;;;;;;;5043852;28;20048;-44